createdAt,value
2024-03-12T00:00:05.820Z,53.79
2024-03-12T00:01:05.983Z,53.48
2024-03-12T00:02:06.078Z,51.79
2024-03-12T00:03:06.094Z,52.00
2024-03-12T00:58:04.464Z,54.71
2024-03-12T00:59:05.345Z,75.09
2024-03-12T01:00:05.340Z,109.29
2024-03-12T01:01:05.447Z,147.54
2024-03-12T01:02:05.348Z,186.27
2024-03-12T01:03:05.341Z,192.44
2024-03-12T01:04:05.443Z,172.31
2024-03-12T01:05:05.340Z,155.24
2024-03-12T01:06:05.342Z,144.57
2024-03-12T01:07:05.381Z,130.36
2024-03-12T01:08:05.326Z,120.38
2024-03-12T01:09:05.330Z,111.61
2024-03-12T01:10:05.381Z,106.69
2024-03-12T01:11:05.431Z,97.77
2024-03-12T01:12:05.379Z,93.19
2024-03-12T01:13:05.506Z,89.82
2024-03-12T01:14:05.424Z,85.94
2024-03-12T01:15:05.391Z,83.10
2024-03-12T01:16:05.418Z,77.96
2024-03-12T01:17:05.451Z,75.12
2024-03-12T01:18:05.741Z,72.87
2024-03-12T01:19:05.397Z,69.20
2024-03-12T01:20:05.391Z,67.34
2024-03-12T01:21:05.391Z,68.22
2024-03-12T01:22:17.158Z,50.00
2024-03-12T01:23:18.193Z,50.00
2024-03-12T01:24:18.223Z,50.00
2024-03-12T01:25:18.272Z,50.00
2024-03-12T01:26:18.307Z,50.00
2024-03-12T01:27:18.359Z,51.77
2024-03-12T01:28:18.432Z,51.53
2024-03-12T01:29:18.513Z,52.10
2024-03-12T01:30:18.506Z,51.10
2024-03-12T01:31:18.504Z,50.00
2024-03-12T01:32:18.526Z,54.59
2024-03-12T01:33:18.650Z,52.21
2024-03-12T01:34:18.618Z,50.94
2024-03-12T01:35:18.652Z,50.00
2024-03-12T01:36:18.693Z,50.23
2024-03-12T01:37:18.722Z,51.17
2024-03-12T01:38:18.769Z,50.92
2024-03-12T01:39:18.796Z,52.44
2024-03-12T01:40:18.884Z,51.92
2024-03-12T01:41:18.944Z,50.11
2024-03-12T01:42:18.949Z,51.61
2024-03-12T01:43:19.025Z,50.94
2024-03-12T01:44:19.013Z,52.14
2024-03-12T01:45:19.091Z,52.10
2024-03-12T01:46:19.123Z,50.61
2024-03-12T01:47:19.262Z,51.06
2024-03-12T01:48:19.369Z,52.39
2024-03-12T01:49:19.494Z,50.00
2024-03-12T01:50:19.681Z,51.01
2024-03-12T01:51:19.759Z,50.63
2024-03-12T01:52:19.873Z,51.04
2024-03-12T01:53:20.020Z,51.60
2024-03-12T01:54:20.168Z,52.40
2024-03-12T01:55:20.252Z,52.94
2024-03-12T01:56:20.397Z,53.02
2024-03-12T01:57:20.519Z,51.38
2024-03-12T01:58:20.641Z,50.00
2024-03-12T01:59:20.768Z,55.16
2024-03-12T02:00:20.924Z,53.00
2024-03-12T02:01:21.314Z,54.57
2024-03-12T02:02:21.144Z,53.77
2024-03-12T02:03:21.276Z,54.30
2024-03-12T02:04:21.388Z,51.85
2024-03-12T02:05:22.249Z,54.01
2024-03-12T02:06:21.594Z,51.44
2024-03-12T02:07:21.644Z,52.01
2024-03-12T02:08:21.734Z,52.39
2024-03-12T02:09:21.831Z,52.26
2024-03-12T02:10:21.908Z,51.82
2024-03-12T02:11:21.997Z,52.15
2024-03-12T02:12:22.194Z,53.02
2024-03-12T02:13:22.266Z,52.77
2024-03-12T02:14:22.198Z,53.08
2024-03-12T02:15:22.473Z,53.21
2024-03-12T02:16:22.461Z,52.43
2024-03-12T02:17:22.510Z,52.04
2024-03-12T02:18:22.663Z,52.35
2024-03-12T02:19:22.766Z,54.46
2024-03-12T02:20:23.517Z,52.25
2024-03-12T02:21:22.989Z,50.02
2024-03-12T02:22:23.027Z,53.03
2024-03-12T02:23:23.105Z,52.84
2024-03-12T02:24:25.855Z,52.88
2024-03-12T02:25:23.504Z,51.63
2024-03-12T02:26:23.255Z,53.08
2024-03-12T02:27:23.387Z,52.75
2024-03-12T02:28:23.311Z,52.51
2024-03-12T02:29:23.355Z,50.89
2024-03-12T02:30:23.499Z,51.36
2024-03-12T02:31:23.477Z,53.31
2024-03-12T02:32:23.525Z,51.85
2024-03-12T02:33:23.521Z,52.88
2024-03-12T02:34:23.531Z,50.67
2024-03-12T02:35:23.566Z,53.54
2024-03-12T02:36:23.656Z,51.90
2024-03-12T02:37:23.628Z,51.87
2024-03-12T02:38:23.678Z,51.72
2024-03-12T02:39:23.767Z,52.81
2024-03-12T02:40:23.834Z,54.11
2024-03-12T02:41:23.790Z,53.39
2024-03-12T02:42:53.860Z,50.00
2024-03-12T02:43:54.838Z,50.00
2024-03-12T02:44:54.846Z,50.00
2024-03-12T02:45:54.907Z,50.00
2024-03-12T02:46:54.868Z,50.00
2024-03-12T02:47:55.021Z,50.85
2024-03-12T02:48:54.986Z,50.40
2024-03-12T02:49:54.906Z,50.73
2024-03-12T02:50:54.904Z,50.81
2024-03-12T02:51:54.967Z,49.37
2024-03-12T02:52:54.916Z,52.87
2024-03-12T02:53:54.926Z,51.93
2024-03-12T02:54:54.969Z,50.47
2024-03-12T02:55:54.918Z,52.59
2024-03-12T02:56:54.904Z,52.57
2024-03-12T02:57:55.003Z,50.16
2024-03-12T02:58:54.900Z,51.11
2024-03-12T02:59:54.920Z,52.09
2024-03-12T03:00:54.999Z,52.13
2024-03-12T03:01:54.975Z,51.17
2024-03-12T03:02:54.898Z,48.78
2024-03-12T03:03:54.985Z,52.14
2024-03-12T03:04:54.892Z,53.21
2024-03-12T03:05:54.883Z,51.66
2024-03-12T03:06:54.933Z,53.00
2024-03-12T03:07:54.887Z,51.00
2024-03-12T03:08:54.870Z,53.99
2024-03-12T03:09:54.943Z,52.95
2024-03-12T03:10:55.037Z,52.20
2024-03-12T03:11:55.124Z,52.49
2024-03-12T03:12:55.260Z,53.42
2024-03-12T03:13:55.236Z,53.66
2024-03-12T03:14:55.326Z,52.62
2024-03-12T03:15:55.506Z,53.40
2024-03-12T03:16:55.660Z,52.38
2024-03-12T03:17:55.720Z,51.95
2024-03-12T03:18:55.740Z,52.43
2024-03-12T03:19:55.884Z,53.12
2024-03-12T03:20:55.870Z,51.47
2024-03-12T03:21:55.976Z,51.56
2024-03-12T03:22:55.927Z,51.92
2024-03-12T03:23:55.953Z,52.10
2024-03-12T03:24:56.004Z,51.87
2024-03-12T03:25:56.027Z,51.57
2024-03-12T03:26:56.079Z,52.60
2024-03-12T03:27:56.204Z,53.27
2024-03-12T03:28:56.297Z,53.52
2024-03-12T03:29:56.399Z,54.42
2024-03-12T03:30:56.552Z,53.25
2024-03-12T03:31:56.606Z,52.59
2024-03-12T03:32:56.753Z,53.06
2024-03-12T03:33:56.884Z,53.25
2024-03-12T03:34:56.920Z,52.94
2024-03-12T03:35:57.079Z,54.46
2024-03-12T03:36:57.252Z,54.30
2024-03-12T03:37:57.224Z,52.91
2024-03-12T03:38:57.315Z,54.14
2024-03-12T03:39:57.453Z,53.64
2024-03-12T03:40:57.576Z,53.84
2024-03-12T03:41:57.743Z,53.69
2024-03-12T03:42:58.146Z,54.00
2024-03-12T03:43:57.837Z,52.62
2024-03-12T03:44:57.884Z,52.19
2024-03-12T03:45:57.949Z,53.84
2024-03-12T03:46:57.924Z,52.47
2024-03-12T03:47:57.998Z,52.68
2024-03-12T03:48:58.579Z,53.22
2024-03-12T03:49:58.019Z,53.31
2024-03-12T03:50:58.038Z,54.09
2024-03-12T03:51:58.135Z,53.74
2024-03-12T03:52:58.097Z,54.68
2024-03-12T03:53:58.169Z,53.45
2024-03-12T03:54:58.296Z,53.17
2024-03-12T03:55:58.192Z,53.90
2024-03-12T03:56:58.235Z,51.76
2024-03-12T03:57:58.393Z,53.70
2024-03-12T03:58:58.406Z,54.31
2024-03-12T03:59:58.513Z,50.62
2024-03-12T04:00:59.048Z,54.15
2024-03-12T04:01:58.656Z,53.54
2024-03-12T04:02:58.643Z,51.90
2024-03-12T04:03:58.684Z,51.78
2024-03-12T04:04:58.702Z,52.62
2024-03-12T04:05:58.742Z,53.49
2024-03-12T04:06:58.788Z,50.67
2024-03-12T04:07:58.850Z,51.44
2024-03-12T04:08:59.017Z,51.90
2024-03-12T04:09:58.998Z,52.28
2024-03-12T04:10:59.070Z,53.56
2024-03-12T04:12:00.012Z,53.40
2024-03-12T04:12:59.280Z,53.06
2024-03-12T04:13:59.203Z,52.73
2024-03-12T04:14:59.248Z,52.73
2024-03-12T04:15:59.306Z,53.82
2024-03-12T04:16:59.301Z,53.36
2024-03-12T04:17:59.422Z,53.58
2024-03-12T04:18:59.434Z,51.46
2024-03-12T04:20:00.031Z,51.11
2024-03-12T04:20:59.443Z,52.24
2024-03-12T04:22:00.103Z,54.20
2024-03-12T04:23:00.052Z,52.39
2024-03-12T04:24:00.606Z,50.83
2024-03-12T04:24:59.555Z,51.79
2024-03-12T04:25:59.607Z,53.97
2024-03-12T04:27:02.519Z,51.84
2024-03-12T04:28:00.729Z,55.61
2024-03-12T04:28:59.603Z,55.94
2024-03-12T04:29:59.606Z,54.18
2024-03-12T04:31:07.262Z,50.00
2024-03-12T04:32:08.809Z,50.00
2024-03-12T04:33:08.273Z,50.00
2024-03-12T04:34:08.249Z,50.00
2024-03-12T04:35:08.168Z,50.00
2024-03-12T04:36:08.261Z,50.00
2024-03-12T04:37:08.297Z,51.65
2024-03-12T04:38:08.188Z,53.09
2024-03-12T04:39:08.259Z,50.34
2024-03-12T04:40:08.639Z,50.50
2024-03-12T04:41:08.813Z,51.31
2024-03-12T04:42:08.242Z,51.10
2024-03-12T04:43:08.321Z,50.01
2024-03-12T04:44:08.241Z,51.68
2024-03-12T04:45:08.798Z,50.80
2024-03-12T04:46:08.347Z,54.63
2024-03-12T04:47:08.270Z,54.44
2024-03-12T04:48:08.307Z,51.82
2024-03-12T04:49:08.391Z,51.45
2024-03-12T04:50:08.367Z,50.97
2024-03-12T04:51:08.458Z,51.54
2024-03-12T04:52:08.603Z,52.84
2024-03-12T04:53:08.644Z,55.28
2024-03-12T04:54:08.763Z,53.00
2024-03-12T04:55:08.950Z,52.81
2024-03-12T04:56:08.926Z,54.06
2024-03-12T04:57:09.016Z,54.51
2024-03-12T04:58:09.309Z,51.43
2024-03-12T04:59:09.229Z,51.32
2024-03-12T05:00:09.320Z,51.34
2024-03-12T05:01:09.479Z,53.54
2024-03-12T05:02:09.576Z,51.88
2024-03-12T05:03:09.540Z,53.94
2024-03-12T05:04:15.755Z,52.97
2024-03-12T05:05:09.599Z,53.02
2024-03-12T05:06:09.595Z,53.22
2024-03-12T05:07:09.889Z,53.43
2024-03-12T05:08:09.688Z,54.29
2024-03-12T05:09:09.647Z,54.64
2024-03-12T05:10:09.746Z,52.02
2024-03-12T05:11:09.848Z,53.38
2024-03-12T05:12:09.637Z,51.65
2024-03-12T05:13:09.834Z,51.33
2024-03-12T05:14:09.658Z,53.41
2024-03-12T05:15:09.733Z,52.10
2024-03-12T05:16:09.877Z,51.40
2024-03-12T05:17:09.738Z,52.56
2024-03-12T05:18:09.805Z,51.97
2024-03-12T05:19:09.798Z,53.61
2024-03-12T05:20:09.812Z,52.33
2024-03-12T05:21:09.793Z,50.90
2024-03-12T05:22:09.859Z,53.03
2024-03-12T05:23:09.729Z,52.26
2024-03-12T05:24:09.765Z,51.12
2024-03-12T05:25:09.790Z,51.13
2024-03-12T05:26:09.852Z,51.09
2024-03-12T05:27:09.775Z,52.44
2024-03-12T05:28:10.189Z,52.99
2024-03-12T05:29:09.865Z,52.92
2024-03-12T05:30:09.967Z,52.45
2024-03-12T05:31:09.968Z,50.50
2024-03-12T05:32:09.899Z,53.50
2024-03-12T05:33:09.968Z,52.46
2024-03-12T05:34:09.957Z,50.81
2024-03-12T05:35:10.029Z,51.04
2024-03-12T05:36:10.130Z,52.26
2024-03-12T05:37:10.281Z,52.51
2024-03-12T05:38:10.325Z,51.76
2024-03-12T05:39:10.412Z,52.70
2024-03-12T05:40:10.613Z,54.93
2024-03-12T05:41:10.604Z,52.07
2024-03-12T05:42:10.714Z,52.26
2024-03-12T05:43:10.940Z,52.60
2024-03-12T05:44:10.903Z,54.29
2024-03-12T05:45:11.015Z,52.04
2024-03-12T05:46:11.232Z,52.11
2024-03-12T05:47:11.150Z,53.50
2024-03-12T05:48:11.929Z,52.29
2024-03-12T05:49:11.454Z,51.68
2024-03-12T05:50:11.250Z,52.30
2024-03-12T05:51:11.296Z,51.61
2024-03-12T05:52:11.442Z,52.89
2024-03-12T05:53:11.598Z,52.52
2024-03-12T05:54:11.604Z,51.44
2024-03-12T05:55:11.772Z,51.65
2024-03-12T05:56:14.324Z,50.28
2024-03-12T05:57:11.792Z,50.45
2024-03-12T05:58:11.844Z,50.65
2024-03-12T05:59:11.874Z,51.36
2024-03-12T06:00:11.868Z,51.82
2024-03-12T06:01:12.058Z,52.45
2024-03-12T06:02:11.971Z,54.18
2024-03-12T06:03:11.959Z,50.48
2024-03-12T06:04:12.088Z,51.88
2024-03-12T06:05:12.025Z,50.84
2024-03-12T06:06:12.070Z,51.64
2024-03-12T06:07:12.148Z,50.00
2024-03-12T06:08:12.117Z,53.02
2024-03-12T06:09:12.153Z,52.65
2024-03-12T06:10:12.345Z,51.75
2024-03-12T06:11:12.357Z,52.67
2024-03-12T06:12:12.339Z,52.69
2024-03-12T06:13:12.361Z,51.58
2024-03-12T06:14:12.392Z,53.73
2024-03-12T06:15:12.452Z,51.62
2024-03-12T06:16:12.658Z,53.13
2024-03-12T06:17:12.476Z,52.07
2024-03-12T06:18:12.551Z,51.82
2024-03-12T06:19:12.664Z,53.37
2024-03-12T06:20:12.706Z,51.13
2024-03-12T06:21:12.782Z,51.82
2024-03-12T06:22:12.942Z,52.08
2024-03-12T06:23:12.864Z,52.64
2024-03-12T06:24:12.883Z,52.88
2024-03-12T06:25:12.987Z,51.40
2024-03-12T06:26:12.964Z,53.47
2024-03-12T06:27:12.982Z,50.79
2024-03-12T06:28:13.102Z,51.65
2024-03-12T06:29:13.056Z,51.17
2024-03-12T06:30:13.094Z,53.36
2024-03-12T06:31:13.299Z,50.74
2024-03-12T06:32:13.155Z,52.52
2024-03-12T06:33:13.685Z,52.70
2024-03-12T06:34:13.318Z,53.19
2024-03-12T06:35:13.278Z,54.12
2024-03-12T06:36:13.317Z,55.67
2024-03-12T06:37:13.359Z,57.24
2024-03-12T06:38:13.368Z,57.55
2024-03-12T06:39:13.409Z,58.40
2024-03-12T06:40:13.550Z,61.28
2024-03-12T06:41:13.519Z,60.37
2024-03-12T06:42:13.910Z,60.22
2024-03-12T06:43:13.737Z,59.16
2024-03-12T06:44:13.794Z,60.80
2024-03-12T06:45:13.929Z,59.45
2024-03-12T06:46:14.515Z,60.59
2024-03-12T06:47:14.045Z,63.27
2024-03-12T06:48:14.130Z,58.63
2024-03-12T06:49:14.091Z,59.43
2024-03-12T06:50:14.060Z,57.69
2024-03-12T06:51:14.075Z,59.34
2024-03-12T06:52:14.159Z,60.40
2024-03-12T06:53:14.201Z,61.62
2024-03-12T06:54:14.413Z,54.21
2024-03-12T06:55:17.187Z,50.52
2024-03-12T06:56:14.374Z,46.33
2024-03-12T06:57:14.399Z,41.71
2024-03-12T06:58:14.439Z,36.14
2024-03-12T06:59:14.365Z,34.60
2024-03-12T07:00:14.894Z,29.66
2024-03-12T07:01:14.565Z,50.00
2024-03-12T07:02:14.392Z,53.28
2024-03-12T07:03:17.605Z,56.42
2024-03-12T07:04:14.940Z,56.57
2024-03-12T07:05:21.784Z,57.22
2024-03-12T07:06:14.378Z,56.82
2024-03-12T07:07:14.539Z,58.58
2024-03-12T07:08:14.415Z,61.68
2024-03-12T07:09:15.873Z,64.93
2024-03-12T07:10:14.662Z,74.53
2024-03-12T07:11:14.544Z,78.35
2024-03-12T07:12:15.389Z,80.61
2024-03-12T07:13:14.993Z,82.73
2024-03-12T07:14:14.911Z,83.76
2024-03-12T07:15:15.661Z,83.33
2024-03-12T07:16:14.816Z,88.61
2024-03-12T07:17:14.750Z,90.54
2024-03-12T07:18:14.854Z,94.78
2024-03-12T07:19:14.940Z,94.70
2024-03-12T07:20:14.834Z,95.65
2024-03-12T07:21:14.883Z,97.38
2024-03-12T07:22:14.962Z,99.76
2024-03-12T07:23:15.389Z,103.14
2024-03-12T07:24:15.082Z,109.57
2024-03-12T07:25:15.257Z,110.89
2024-03-12T07:26:15.438Z,112.93
2024-03-12T07:27:15.322Z,114.46
2024-03-12T07:28:15.515Z,118.58
2024-03-12T07:29:15.910Z,119.69
2024-03-12T07:30:18.742Z,121.40
2024-03-12T07:31:15.567Z,121.64
2024-03-12T07:32:15.507Z,122.76
2024-03-12T07:33:15.584Z,124.94
2024-03-12T07:34:18.234Z,128.42
2024-03-12T07:35:15.495Z,121.94
2024-03-12T07:36:15.426Z,123.98
2024-03-12T07:37:15.667Z,128.32
2024-03-12T07:38:15.401Z,135.32
2024-03-12T07:39:15.393Z,145.57
2024-03-12T07:40:15.505Z,147.71
2024-03-12T07:41:15.681Z,149.02
2024-03-12T07:42:15.632Z,148.90
2024-03-12T07:43:15.424Z,152.25
2024-03-12T07:44:15.281Z,154.54
2024-03-12T07:45:15.261Z,159.93
2024-03-12T07:46:15.341Z,162.65
2024-03-12T07:47:15.404Z,161.62
2024-03-12T07:48:15.231Z,154.62
2024-03-12T07:49:16.498Z,145.59
2024-03-12T07:50:15.408Z,139.72
2024-03-12T07:51:15.241Z,128.69
2024-03-12T07:52:15.223Z,121.41
2024-03-12T07:53:15.278Z,116.64
2024-03-12T07:54:15.369Z,109.68
2024-03-12T07:55:15.601Z,104.39
2024-03-12T07:56:15.570Z,103.06
2024-03-12T07:57:17.569Z,102.16
2024-03-12T07:58:15.659Z,102.31
2024-03-12T07:59:19.115Z,103.02
2024-03-12T08:00:16.370Z,102.53
2024-03-12T08:01:15.724Z,103.83
2024-03-12T08:02:15.552Z,107.30
2024-03-12T08:03:15.539Z,112.46
2024-03-12T08:04:15.632Z,121.17
2024-03-12T08:05:16.406Z,123.50
2024-03-12T08:06:15.479Z,126.61
2024-03-12T08:07:15.604Z,126.88
2024-03-12T08:08:15.445Z,129.30
2024-03-12T08:09:15.445Z,133.97
2024-03-12T08:10:15.450Z,135.86
2024-03-12T08:11:15.442Z,137.21
2024-03-12T08:12:17.786Z,141.53
2024-03-12T08:13:15.481Z,144.47
2024-03-12T08:14:15.459Z,146.74
2024-03-12T08:15:15.902Z,149.18
2024-03-12T08:16:15.447Z,151.15
2024-03-12T08:17:15.370Z,152.56
2024-03-12T08:18:20.772Z,152.77
2024-03-12T08:19:15.529Z,152.95
2024-03-12T08:20:15.293Z,154.00
2024-03-12T08:21:15.273Z,155.91
2024-03-12T08:22:15.429Z,158.91
2024-03-12T08:23:15.300Z,163.38
2024-03-12T08:24:15.243Z,165.45
2024-03-12T08:25:16.247Z,165.95
2024-03-12T08:26:15.200Z,166.05
2024-03-12T08:27:15.156Z,167.07
2024-03-12T08:28:16.100Z,168.47
2024-03-12T08:29:15.121Z,172.28
2024-03-12T08:30:15.092Z,173.79
2024-03-12T08:31:24.779Z,166.64
2024-03-12T08:32:15.061Z,155.29
2024-03-12T08:33:16.061Z,142.25
2024-03-12T08:34:15.086Z,129.84
2024-03-12T08:35:14.988Z,112.80
2024-03-12T08:36:14.989Z,100.07
2024-03-12T08:37:15.081Z,89.88
2024-03-12T08:38:15.004Z,75.56
2024-03-12T08:39:15.070Z,64.52
2024-03-12T08:40:15.148Z,57.55
2024-03-12T08:41:15.058Z,52.95
2024-03-12T08:42:15.074Z,51.93
2024-03-12T08:43:15.974Z,55.75
2024-03-12T08:44:15.286Z,63.99
2024-03-12T08:45:15.217Z,69.82
2024-03-12T08:46:15.268Z,73.07
2024-03-12T08:47:15.284Z,71.67
2024-03-12T08:48:15.391Z,70.88
2024-03-12T08:49:15.409Z,71.37
2024-03-12T08:50:15.698Z,73.78
2024-03-12T08:51:15.721Z,74.11
2024-03-12T08:52:15.828Z,73.82
2024-03-12T08:53:16.514Z,76.91
2024-03-12T08:54:15.965Z,73.54
2024-03-12T08:55:16.053Z,72.21
2024-03-12T08:56:15.749Z,72.64
2024-03-12T08:57:15.933Z,76.74
2024-03-12T08:58:16.007Z,79.11
2024-03-12T08:59:15.985Z,80.86
2024-03-12T09:00:16.075Z,87.26
2024-03-12T09:01:16.391Z,92.10
2024-03-12T09:02:16.286Z,98.96
2024-03-12T09:03:16.347Z,100.54
2024-03-12T09:04:16.431Z,103.85
2024-03-12T09:05:16.449Z,107.39
2024-03-12T09:06:16.481Z,111.01
2024-03-12T09:07:16.596Z,112.14
2024-03-12T09:08:16.757Z,117.67
2024-03-12T09:09:16.768Z,120.51
2024-03-12T09:10:16.998Z,124.15
2024-03-12T09:11:16.784Z,128.04
2024-03-12T09:12:16.732Z,131.03
2024-03-12T09:13:16.818Z,134.22
2024-03-12T09:14:16.824Z,137.11
2024-03-12T09:15:16.865Z,139.69
2024-03-12T09:16:16.931Z,141.26
2024-03-12T09:17:16.977Z,145.58
2024-03-12T09:18:17.053Z,147.72
2024-03-12T09:19:17.122Z,150.31
2024-03-12T09:20:17.245Z,153.07
2024-03-12T09:21:17.465Z,155.41
2024-03-12T09:22:17.371Z,157.50
2024-03-12T09:23:17.289Z,158.30
2024-03-12T09:24:17.342Z,156.74
2024-03-12T09:25:19.687Z,152.16
2024-03-12T09:26:17.439Z,148.77
2024-03-12T09:27:17.385Z,141.39
2024-03-12T09:28:17.729Z,134.63
2024-03-12T09:29:17.309Z,129.58
2024-03-12T09:30:17.267Z,125.29
2024-03-12T09:31:17.273Z,120.41
2024-03-12T09:32:17.230Z,117.30
2024-03-12T09:33:17.300Z,115.99
2024-03-12T09:34:17.310Z,113.68
2024-03-12T09:35:17.166Z,112.45
2024-03-12T09:36:17.155Z,111.04
2024-03-12T09:37:17.238Z,110.16
2024-03-12T09:38:17.448Z,109.99
2024-03-12T09:39:17.097Z,109.63
2024-03-12T09:40:17.234Z,111.20
2024-03-12T09:41:17.039Z,111.04
2024-03-12T09:42:17.037Z,111.11
2024-03-12T09:43:17.571Z,112.38
2024-03-12T09:44:17.044Z,110.57
2024-03-12T09:45:18.062Z,109.58
2024-03-12T09:46:17.032Z,108.54
2024-03-12T09:47:16.967Z,111.17
2024-03-12T09:48:18.303Z,113.22
2024-03-12T09:49:17.003Z,115.12
2024-03-12T09:50:16.892Z,117.00
2024-03-12T09:51:16.930Z,120.12
2024-03-12T09:52:16.891Z,122.92
2024-03-12T09:53:16.856Z,126.46
2024-03-12T09:54:16.837Z,127.41
2024-03-12T09:55:17.235Z,128.71
2024-03-12T09:56:16.884Z,133.41
2024-03-12T09:57:16.882Z,135.05
2024-03-12T09:58:16.952Z,134.96
2024-03-12T09:59:16.983Z,142.66
2024-03-12T10:00:16.940Z,143.52
2024-03-12T10:01:17.028Z,144.53
2024-03-12T10:02:16.988Z,145.23
2024-03-12T10:03:16.989Z,143.15
2024-03-12T10:04:16.989Z,139.34
2024-03-12T10:05:16.999Z,138.01
2024-03-12T10:06:17.021Z,135.97
2024-03-12T10:07:17.072Z,134.77
2024-03-12T10:08:17.083Z,132.73
2024-03-12T10:09:17.115Z,135.86
2024-03-12T10:10:17.599Z,140.64
2024-03-12T10:11:17.201Z,141.93
2024-03-12T10:12:17.155Z,144.20
2024-03-12T10:13:17.922Z,146.53
2024-03-12T10:14:17.171Z,146.12
2024-03-12T10:15:17.219Z,152.13
2024-03-12T10:16:17.249Z,157.55
2024-03-12T10:17:17.228Z,155.55
2024-03-12T10:18:17.203Z,151.49
2024-03-12T10:19:17.998Z,145.96
2024-03-12T10:20:17.735Z,141.36
2024-03-12T10:21:17.215Z,140.01
2024-03-12T10:22:17.248Z,145.19
2024-03-12T10:23:17.219Z,160.42
2024-03-12T10:24:17.458Z,159.67
2024-03-12T10:25:17.227Z,148.69
2024-03-12T10:26:17.784Z,139.75
2024-03-12T10:27:17.222Z,133.98
2024-03-12T10:28:17.252Z,127.04
2024-03-12T10:29:17.215Z,121.52
2024-03-12T10:30:17.491Z,117.51
2024-03-12T10:31:17.439Z,114.41
2024-03-12T10:32:17.266Z,110.18
2024-03-12T10:33:17.309Z,106.15
2024-03-12T10:34:17.396Z,104.27
2024-03-12T10:35:17.363Z,102.35
2024-03-12T10:36:17.431Z,102.35
2024-03-12T10:37:17.508Z,98.89
2024-03-12T10:38:17.532Z,100.21
2024-03-12T10:39:18.573Z,100.02
2024-03-12T10:40:18.235Z,95.53
2024-03-12T10:41:17.797Z,90.02
2024-03-12T10:42:17.597Z,109.42
2024-03-12T10:43:17.757Z,100.79
2024-03-12T10:44:17.732Z,85.00
2024-03-12T10:45:18.093Z,83.09
2024-03-12T10:46:17.969Z,78.45
2024-03-12T10:47:18.028Z,76.57
2024-03-12T10:48:18.105Z,69.91
2024-03-12T10:49:18.198Z,70.08
2024-03-12T10:50:18.498Z,74.27
2024-03-12T10:51:18.309Z,74.37
2024-03-12T10:52:18.471Z,75.32
2024-03-12T10:53:18.442Z,79.21
2024-03-12T10:54:18.677Z,83.88
2024-03-12T10:55:18.582Z,89.47
2024-03-12T10:56:19.037Z,95.40
2024-03-12T10:57:18.559Z,98.42
2024-03-12T10:58:18.628Z,101.79
2024-03-12T10:59:18.600Z,106.31
2024-03-12T11:00:18.598Z,111.46
2024-03-12T11:01:18.971Z,114.14
2024-03-12T11:02:18.636Z,116.64
2024-03-12T11:03:18.754Z,119.96
2024-03-12T11:04:18.669Z,121.33
2024-03-12T11:05:18.582Z,121.41
2024-03-12T11:06:19.561Z,117.61
2024-03-12T11:07:18.614Z,115.51
2024-03-12T11:08:18.564Z,115.36
2024-03-12T11:09:18.546Z,115.61
2024-03-12T11:10:18.637Z,117.69
2024-03-12T11:11:18.598Z,117.42
2024-03-12T11:12:18.560Z,116.53
2024-03-12T11:13:18.626Z,118.93
2024-03-12T11:14:18.531Z,121.79
2024-03-12T11:15:18.618Z,122.35
2024-03-12T11:16:19.106Z,116.24
2024-03-12T11:17:18.616Z,106.94
2024-03-12T11:18:18.697Z,102.59
2024-03-12T11:19:18.836Z,100.66
2024-03-12T11:20:18.684Z,100.92
2024-03-12T11:21:18.702Z,102.20
2024-03-12T11:22:19.009Z,103.50
2024-03-12T11:23:18.816Z,104.05
2024-03-12T11:24:18.837Z,106.05
2024-03-12T11:25:18.947Z,113.00
2024-03-12T11:26:18.953Z,129.21
2024-03-12T11:27:19.017Z,133.12
2024-03-12T11:28:19.042Z,134.51
2024-03-12T11:29:19.084Z,133.26
2024-03-12T11:30:19.508Z,131.79
2024-03-12T11:31:19.256Z,132.79
2024-03-12T11:32:19.208Z,127.42
2024-03-12T11:33:19.253Z,124.29
2024-03-12T11:34:19.358Z,117.30
2024-03-12T11:35:19.650Z,111.14
2024-03-12T11:36:19.470Z,105.74
2024-03-12T11:37:19.592Z,95.55
2024-03-12T11:38:19.642Z,89.18
2024-03-12T11:39:19.798Z,83.36
2024-03-12T11:40:20.002Z,79.83
2024-03-12T11:41:19.895Z,77.87
2024-03-12T11:42:20.001Z,75.76
2024-03-12T11:43:20.060Z,78.04
2024-03-12T11:44:20.127Z,73.14
2024-03-12T11:45:20.397Z,70.61
2024-03-12T11:46:20.326Z,66.18
2024-03-12T11:47:20.370Z,63.75
2024-03-12T11:48:20.436Z,57.66
2024-03-12T11:49:20.506Z,54.25
2024-03-12T11:50:22.072Z,51.03
2024-03-12T11:51:20.700Z,53.76
2024-03-12T11:52:20.749Z,56.58
2024-03-12T11:53:20.780Z,59.03
2024-03-12T11:54:20.790Z,63.76
2024-03-12T11:55:20.837Z,69.51
2024-03-12T11:56:20.847Z,75.80
2024-03-12T11:57:20.857Z,80.85
2024-03-12T11:58:20.922Z,84.41
2024-03-12T11:59:20.907Z,90.66
2024-03-12T12:00:20.968Z,94.86
2024-03-12T12:01:21.256Z,99.43
2024-03-12T12:02:21.097Z,105.93
2024-03-12T12:03:21.200Z,111.02
2024-03-12T12:04:21.307Z,114.98
2024-03-12T12:05:21.304Z,118.53
2024-03-12T12:06:21.415Z,121.44
2024-03-12T12:07:21.421Z,126.49
2024-03-12T12:08:21.445Z,129.16
2024-03-12T12:09:21.514Z,133.32
2024-03-12T12:10:22.114Z,136.61
2024-03-12T12:11:21.579Z,139.10
2024-03-12T12:12:21.814Z,144.45
2024-03-12T12:13:21.513Z,156.48
2024-03-12T12:14:21.511Z,165.75
2024-03-12T12:15:22.015Z,173.37
2024-03-12T12:16:22.070Z,179.21
2024-03-12T12:17:21.707Z,183.27
2024-03-12T12:18:21.783Z,186.65
2024-03-12T12:19:25.612Z,189.79
2024-03-12T12:20:22.021Z,189.93
2024-03-12T12:21:21.832Z,191.00
2024-03-12T12:22:21.867Z,193.16
2024-03-12T12:23:21.750Z,196.29
2024-03-12T12:24:21.701Z,201.71
2024-03-12T12:25:22.137Z,199.58
2024-03-12T12:26:21.711Z,199.56
2024-03-12T12:27:21.586Z,199.06
2024-03-12T12:28:21.616Z,199.15
2024-03-12T12:29:21.572Z,198.73
2024-03-12T12:30:21.552Z,199.89
2024-03-12T12:31:21.600Z,199.27
2024-03-12T12:32:21.479Z,198.58
2024-03-12T12:33:21.428Z,198.69
2024-03-12T12:34:21.473Z,198.35
2024-03-12T12:35:22.043Z,199.13
2024-03-12T12:36:21.374Z,198.90
2024-03-12T12:37:21.424Z,197.55
2024-03-12T12:38:21.374Z,199.03
2024-03-12T12:39:21.595Z,198.86
2024-03-12T12:40:21.784Z,198.04
2024-03-12T12:41:21.255Z,198.31
2024-03-12T12:42:21.639Z,197.53
2024-03-12T12:43:21.361Z,196.13
2024-03-12T12:44:21.189Z,196.54
2024-03-12T12:45:21.524Z,196.27
2024-03-12T12:46:21.215Z,195.46
2024-03-12T12:47:21.141Z,195.05
2024-03-12T12:48:21.109Z,194.05
2024-03-12T12:49:21.098Z,194.39
2024-03-12T12:50:21.532Z,194.24
2024-03-12T12:51:21.558Z,191.88
2024-03-12T12:52:21.184Z,179.82
2024-03-12T12:53:21.044Z,162.70
2024-03-12T12:54:21.061Z,145.19
2024-03-12T12:55:21.003Z,125.72
2024-03-12T12:56:21.027Z,107.51
2024-03-12T12:57:21.012Z,88.79
2024-03-12T12:58:21.088Z,68.90
2024-03-12T12:59:21.119Z,54.01
2024-03-12T13:00:21.121Z,50.32
2024-03-12T13:01:21.606Z,50.33
2024-03-12T13:02:21.268Z,51.88
2024-03-12T13:03:21.270Z,50.36
2024-03-12T13:04:21.496Z,51.84
2024-03-12T13:05:21.540Z,57.83
2024-03-12T13:06:21.397Z,63.43
2024-03-12T13:07:21.491Z,64.92
2024-03-12T13:08:21.466Z,68.79
2024-03-12T13:09:21.520Z,71.24
2024-03-12T13:10:21.802Z,76.92
2024-03-12T13:11:21.735Z,85.46
2024-03-12T13:12:21.725Z,92.95
2024-03-12T13:13:21.866Z,97.20
2024-03-12T13:14:21.843Z,100.16
2024-03-12T13:15:21.963Z,104.40
2024-03-12T13:16:21.993Z,109.04
2024-03-12T13:17:22.551Z,107.53
2024-03-12T13:18:21.982Z,111.57
2024-03-12T13:19:22.144Z,112.21
2024-03-12T13:20:22.041Z,112.26
2024-03-12T13:21:22.067Z,117.51
2024-03-12T13:22:25.818Z,116.52
2024-03-12T13:23:23.140Z,116.64
2024-03-12T13:24:22.314Z,116.78
2024-03-12T13:25:22.262Z,117.96
2024-03-12T13:26:22.176Z,120.94
2024-03-12T13:27:22.584Z,124.76
2024-03-12T13:28:22.136Z,128.45
2024-03-12T13:29:22.073Z,129.18
2024-03-12T13:30:22.085Z,129.56
2024-03-12T13:31:22.075Z,132.20
2024-03-12T13:32:22.184Z,133.23
2024-03-12T13:33:22.201Z,133.68
2024-03-12T13:34:22.154Z,134.66
2024-03-12T13:35:22.637Z,135.36
2024-03-12T13:36:22.078Z,137.34
2024-03-12T13:37:23.580Z,137.17